sensor_id;sensor_type;location;lat;lon;timestamp;P1;durP1;ratioP1;P2;durP2;ratioP2
71162;SDS011;58858;50.948;6.566;2023-02-14T00:05:39;11.23;;;7.45;;
71162;SDS011;58858;50.948;6.566;2023-02-14T00:15:40;10.65;;;6.57;;
71162;SDS011;58858;50.948;6.566;2023-02-14T00:25:41;13.48;;;7.47;;
71162;SDS011;58858;50.948;6.566;2023-02-14T00:35:42;13.85;;;7.05;;
71162;SDS011;58858;50.948;6.566;2023-02-14T00:45:43;10.02;;;6.55;;
71162;SDS011;58858;50.948;6.566;2023-02-14T00:55:45;13.65;;;7.50;;
71162;SDS011;58858;50.948;6.566;2023-02-14T01:05:47;14.57;;;8.63;;
71162;SDS011;58858;50.948;6.566;2023-02-14T01:15:49;15.32;;;9.10;;
71162;SDS011;58858;50.948;6.566;2023-02-14T01:25:51;14.63;;;8.10;;
71162;SDS011;58858;50.948;6.566;2023-02-14T01:35:52;12.75;;;8.23;;
71162;SDS011;58858;50.948;6.566;2023-02-14T01:45:54;16.95;;;9.65;;
71162;SDS011;58858;50.948;6.566;2023-02-14T01:55:58;16.70;;;9.93;;
71162;SDS011;58858;50.948;6.566;2023-02-14T02:06:07;17.13;;;9.43;;
71162;SDS011;58858;50.948;6.566;2023-02-14T02:36:55;13.15;;;7.97;;
71162;SDS011;58858;50.948;6.566;2023-02-14T02:47:21;16.73;;;9.70;;
71162;SDS011;58858;50.948;6.566;2023-02-14T02:57:34;20.70;;;11.15;;
71162;SDS011;58858;50.948;6.566;2023-02-14T03:07:38;12.63;;;8.15;;
71162;SDS011;58858;50.948;6.566;2023-02-14T03:28:10;20.75;;;13.20;;
71162;SDS011;58858;50.948;6.566;2023-02-14T03:38:16;16.30;;;9.47;;
71162;SDS011;58858;50.948;6.566;2023-02-14T03:48:24;22.73;;;10.48;;
71162;SDS011;58858;50.948;6.566;2023-02-14T03:58:30;18.23;;;10.45;;
71162;SDS011;58858;50.948;6.566;2023-02-14T04:08:34;19.60;;;12.23;;
71162;SDS011;58858;50.948;6.566;2023-02-14T04:18:35;16.33;;;9.57;;
71162;SDS011;58858;50.948;6.566;2023-02-14T04:28:54;16.10;;;9.38;;
71162;SDS011;58858;50.948;6.566;2023-02-14T04:38:55;17.90;;;10.13;;
71162;SDS011;58858;50.948;6.566;2023-02-14T04:48:56;15.98;;;9.75;;
71162;SDS011;58858;50.948;6.566;2023-02-14T04:58:58;14.90;;;9.30;;
71162;SDS011;58858;50.948;6.566;2023-02-14T05:08:59;15.15;;;9.57;;
71162;SDS011;58858;50.948;6.566;2023-02-14T05:19:00;18.65;;;11.07;;
71162;SDS011;58858;50.948;6.566;2023-02-14T05:29:01;16.52;;;10.38;;
71162;SDS011;58858;50.948;6.566;2023-02-14T05:39:03;19.75;;;11.85;;
71162;SDS011;58858;50.948;6.566;2023-02-14T05:49:04;20.77;;;12.90;;
71162;SDS011;58858;50.948;6.566;2023-02-14T05:59:05;21.25;;;13.30;;
71162;SDS011;58858;50.948;6.566;2023-02-14T06:09:06;24.55;;;14.48;;
71162;SDS011;58858;50.948;6.566;2023-02-14T06:19:07;25.23;;;12.95;;
71162;SDS011;58858;50.948;6.566;2023-02-14T06:29:08;24.67;;;13.80;;
71162;SDS011;58858;50.948;6.566;2023-02-14T06:39:09;28.42;;;15.63;;
71162;SDS011;58858;50.948;6.566;2023-02-14T06:49:10;22.25;;;12.23;;
71162;SDS011;58858;50.948;6.566;2023-02-14T06:59:11;26.75;;;14.55;;
71162;SDS011;58858;50.948;6.566;2023-02-14T07:09:12;30.30;;;15.98;;
71162;SDS011;58858;50.948;6.566;2023-02-14T07:19:17;24.38;;;13.73;;
71162;SDS011;58858;50.948;6.566;2023-02-14T07:29:18;27.98;;;17.33;;
71162;SDS011;58858;50.948;6.566;2023-02-14T07:39:20;33.53;;;17.88;;
71162;SDS011;58858;50.948;6.566;2023-02-14T07:49:21;33.85;;;18.73;;
71162;SDS011;58858;50.948;6.566;2023-02-14T07:59:22;31.67;;;17.92;;
71162;SDS011;58858;50.948;6.566;2023-02-14T08:09:23;31.23;;;18.58;;
71162;SDS011;58858;50.948;6.566;2023-02-14T08:19:24;32.55;;;19.50;;
71162;SDS011;58858;50.948;6.566;2023-02-14T08:29:25;31.92;;;19.35;;
71162;SDS011;58858;50.948;6.566;2023-02-14T08:39:26;30.58;;;17.83;;
71162;SDS011;58858;50.948;6.566;2023-02-14T08:49:27;24.85;;;16.92;;
71162;SDS011;58858;50.948;6.566;2023-02-14T08:59:28;29.65;;;16.75;;
71162;SDS011;58858;50.948;6.566;2023-02-14T09:09:30;24.50;;;17.08;;
71162;SDS011;58858;50.948;6.566;2023-02-14T09:19:32;25.85;;;16.75;;
71162;SDS011;58858;50.948;6.566;2023-02-14T09:29:33;21.50;;;15.15;;
71162;SDS011;58858;50.948;6.566;2023-02-14T09:39:35;20.33;;;13.95;;
71162;SDS011;58858;50.948;6.566;2023-02-14T09:49:36;21.95;;;14.18;;
71162;SDS011;58858;50.948;6.566;2023-02-14T09:59:45;21.42;;;13.63;;
71162;SDS011;58858;50.948;6.566;2023-02-14T10:20:30;20.88;;;13.85;;
71162;SDS011;58858;50.948;6.566;2023-02-14T10:30:36;22.63;;;13.85;;
71162;SDS011;58858;50.948;6.566;2023-02-14T10:40:59;17.85;;;12.52;;
71162;SDS011;58858;50.948;6.566;2023-02-14T11:01:16;19.88;;;11.82;;
71162;SDS011;58858;50.948;6.566;2023-02-14T11:11:31;17.15;;;10.93;;
71162;SDS011;58858;50.948;6.566;2023-02-14T11:21:39;16.70;;;11.30;;
71162;SDS011;58858;50.948;6.566;2023-02-14T11:41:49;16.10;;;9.82;;
71162;SDS011;58858;50.948;6.566;2023-02-14T11:51:51;14.95;;;8.45;;
71162;SDS011;58858;50.948;6.566;2023-02-14T12:01:52;15.68;;;8.57;;
71162;SDS011;58858;50.948;6.566;2023-02-14T12:11:54;14.40;;;8.98;;
71162;SDS011;58858;50.948;6.566;2023-02-14T12:22:07;13.93;;;9.75;;
71162;SDS011;58858;50.948;6.566;2023-02-14T12:32:23;14.15;;;8.90;;
71162;SDS011;58858;50.948;6.566;2023-02-14T13:24:01;17.88;;;10.43;;
71162;SDS011;58858;50.948;6.566;2023-02-14T13:44:40;12.68;;;7.53;;
71162;SDS011;58858;50.948;6.566;2023-02-14T13:54:48;10.43;;;6.88;;
71162;SDS011;58858;50.948;6.566;2023-02-14T14:04:50;14.13;;;7.22;;
71162;SDS011;58858;50.948;6.566;2023-02-14T14:25:04;16.35;;;9.98;;
71162;SDS011;58858;50.948;6.566;2023-02-14T14:45:18;22.52;;;13.32;;
71162;SDS011;58858;50.948;6.566;2023-02-14T14:55:25;19.30;;;12.50;;
71162;SDS011;58858;50.948;6.566;2023-02-14T15:05:30;19.63;;;11.30;;
71162;SDS011;58858;50.948;6.566;2023-02-14T15:15:37;18.73;;;12.32;;
71162;SDS011;58858;50.948;6.566;2023-02-14T15:25:38;17.63;;;11.32;;
71162;SDS011;58858;50.948;6.566;2023-02-14T15:35:39;18.23;;;10.20;;
71162;SDS011;58858;50.948;6.566;2023-02-14T15:45:42;17.25;;;10.95;;
71162;SDS011;58858;50.948;6.566;2023-02-14T15:55:47;17.00;;;10.15;;
71162;SDS011;58858;50.948;6.566;2023-02-14T16:05:49;16.47;;;11.13;;
71162;SDS011;58858;50.948;6.566;2023-02-14T16:15:58;19.65;;;10.57;;
71162;SDS011;58858;50.948;6.566;2023-02-14T16:26:01;14.45;;;10.73;;
71162;SDS011;58858;50.948;6.566;2023-02-14T16:36:06;22.95;;;11.00;;
71162;SDS011;58858;50.948;6.566;2023-02-14T16:46:19;19.58;;;10.25;;
71162;SDS011;58858;50.948;6.566;2023-02-14T17:06:26;23.45;;;15.65;;
71162;SDS011;58858;50.948;6.566;2023-02-14T17:16:28;18.27;;;13.35;;
71162;SDS011;58858;50.948;6.566;2023-02-14T17:26:29;19.15;;;11.93;;
71162;SDS011;58858;50.948;6.566;2023-02-14T17:36:31;18.92;;;13.13;;
71162;SDS011;58858;50.948;6.566;2023-02-14T17:46:32;18.33;;;11.65;;
71162;SDS011;58858;50.948;6.566;2023-02-14T17:56:34;32.60;;;20.30;;
71162;SDS011;58858;50.948;6.566;2023-02-14T18:06:35;21.25;;;14.68;;
71162;SDS011;58858;50.948;6.566;2023-02-14T18:16:37;21.50;;;14.43;;
71162;SDS011;58858;50.948;6.566;2023-02-14T18:26:39;19.75;;;13.00;;
71162;SDS011;58858;50.948;6.566;2023-02-14T18:36:40;19.23;;;12.55;;
71162;SDS011;58858;50.948;6.566;2023-02-14T18:46:41;21.83;;;14.93;;
71162;SDS011;58858;50.948;6.566;2023-02-14T18:56:42;20.42;;;12.27;;
71162;SDS011;58858;50.948;6.566;2023-02-14T19:06:43;24.17;;;14.50;;
71162;SDS011;58858;50.948;6.566;2023-02-14T19:16:53;21.67;;;13.65;;
71162;SDS011;58858;50.948;6.566;2023-02-14T19:26:55;19.30;;;12.43;;
71162;SDS011;58858;50.948;6.566;2023-02-14T19:36:57;20.70;;;13.57;;
71162;SDS011;58858;50.948;6.566;2023-02-14T19:47:00;32.50;;;18.80;;
71162;SDS011;58858;50.948;6.566;2023-02-14T19:57:01;22.52;;;15.23;;
71162;SDS011;58858;50.948;6.566;2023-02-14T20:07:02;23.33;;;14.45;;
71162;SDS011;58858;50.948;6.566;2023-02-14T20:17:04;23.25;;;14.82;;
71162;SDS011;58858;50.948;6.566;2023-02-14T20:27:07;30.67;;;18.42;;
71162;SDS011;58858;50.948;6.566;2023-02-14T20:37:08;30.23;;;17.40;;
71162;SDS011;58858;50.948;6.566;2023-02-14T20:47:10;27.55;;;16.92;;
71162;SDS011;58858;50.948;6.566;2023-02-14T20:57:11;29.77;;;16.23;;
71162;SDS011;58858;50.948;6.566;2023-02-14T21:07:12;22.40;;;14.57;;
71162;SDS011;58858;50.948;6.566;2023-02-14T21:17:13;26.52;;;15.90;;
71162;SDS011;58858;50.948;6.566;2023-02-14T21:27:15;26.60;;;17.02;;
71162;SDS011;58858;50.948;6.566;2023-02-14T21:37:16;25.83;;;15.43;;
71162;SDS011;58858;50.948;6.566;2023-02-14T21:47:17;22.17;;;14.10;;
71162;SDS011;58858;50.948;6.566;2023-02-14T21:57:18;29.92;;;18.05;;
71162;SDS011;58858;50.948;6.566;2023-02-14T22:07:19;27.85;;;18.05;;
71162;SDS011;58858;50.948;6.566;2023-02-14T22:17:20;30.00;;;18.63;;
71162;SDS011;58858;50.948;6.566;2023-02-14T22:27:21;28.67;;;19.08;;
71162;SDS011;58858;50.948;6.566;2023-02-14T22:37:22;26.15;;;16.63;;
71162;SDS011;58858;50.948;6.566;2023-02-14T22:47:24;29.98;;;18.52;;
71162;SDS011;58858;50.948;6.566;2023-02-14T22:57:25;30.63;;;17.52;;
71162;SDS011;58858;50.948;6.566;2023-02-14T23:07:26;33.30;;;18.15;;
71162;SDS011;58858;50.948;6.566;2023-02-14T23:17:27;30.95;;;19.42;;
71162;SDS011;58858;50.948;6.566;2023-02-14T23:27:46;31.40;;;19.35;;
71162;SDS011;58858;50.948;6.566;2023-02-14T23:37:47;33.78;;;20.10;;
71162;SDS011;58858;50.948;6.566;2023-02-14T23:47:48;32.05;;;19.90;;
71162;SDS011;58858;50.948;6.566;2023-02-14T23:57:49;32.53;;;19.05;;
